createdAt,value
2018-09-29T00:02:26.590Z,99.60
2018-09-29T00:04:54.814Z,99.80
2018-09-29T00:07:22.994Z,99.90
2018-09-29T00:09:51.236Z,99.90
2018-09-29T00:12:19.484Z,99.90
2018-09-29T00:14:47.732Z,99.90
2018-09-29T00:17:15.943Z,99.90
2018-09-29T00:19:44.108Z,99.90
2018-09-29T00:22:12.407Z,99.90
2018-09-29T00:24:40.558Z,99.90
2018-09-29T00:27:08.842Z,99.90
2018-09-29T00:29:37.018Z,99.90
2018-09-29T00:32:05.391Z,99.90
2018-09-29T00:34:33.512Z,99.90
2018-09-29T00:37:01.656Z,99.90
2018-09-29T00:39:29.802Z,99.90
2018-09-29T00:41:57.984Z,99.90
2018-09-29T00:44:26.224Z,99.90
2018-09-29T00:46:54.484Z,99.90
2018-09-29T00:49:22.690Z,99.90
2018-09-29T00:51:50.928Z,99.90
2018-09-29T00:54:19.256Z,99.90
2018-09-29T00:56:47.419Z,99.90
2018-09-29T00:59:15.684Z,99.90
2018-09-29T01:01:43.921Z,99.90
2018-09-29T01:04:12.160Z,99.90
2018-09-29T01:06:40.352Z,99.90
2018-09-29T01:09:08.629Z,99.90
2018-09-29T01:11:36.989Z,99.90
2018-09-29T01:14:05.191Z,99.90
2018-09-29T01:16:33.437Z,99.90
2018-09-29T01:19:01.656Z,99.90
2018-09-29T01:21:29.777Z,99.90
2018-09-29T01:23:58.799Z,99.90
2018-09-29T01:26:26.945Z,99.90
2018-09-29T01:28:55.066Z,99.90
2018-09-29T01:31:23.237Z,99.90
2018-09-29T01:33:51.377Z,99.90
2018-09-29T01:36:19.751Z,99.90
2018-09-29T01:38:47.957Z,99.90
2018-09-29T01:41:16.239Z,99.90
2018-09-29T01:43:44.470Z,99.90
2018-09-29T01:46:12.711Z,99.90
2018-09-29T01:48:41.020Z,99.90
2018-09-29T01:51:09.268Z,99.90
2018-09-29T01:53:37.506Z,99.90
2018-09-29T01:56:05.740Z,99.90
2018-09-29T01:58:33.926Z,99.90
2018-09-29T02:01:02.236Z,99.90
2018-09-29T02:03:30.478Z,99.90
2018-09-29T02:05:58.639Z,99.90
2018-09-29T02:08:26.778Z,99.90
2018-09-29T02:10:54.928Z,99.90
2018-09-29T02:13:23.129Z,99.90
2018-09-29T02:15:51.473Z,99.90
2018-09-29T02:18:19.740Z,99.90
2018-09-29T02:20:47.926Z,99.90
2018-09-29T02:23:16.056Z,99.90
2018-09-29T02:25:44.268Z,99.90
2018-09-29T02:28:12.496Z,99.90
2018-09-29T02:30:40.726Z,99.90
2018-09-29T02:33:08.950Z,99.90
2018-09-29T02:35:37.354Z,99.90
2018-09-29T02:38:05.644Z,99.90
2018-09-29T02:40:33.842Z,99.90
2018-09-29T02:43:02.294Z,99.90
2018-09-29T02:45:30.438Z,99.90
2018-09-29T02:47:59.308Z,99.90
2018-09-29T02:50:28.132Z,99.90
2018-09-29T02:52:56.336Z,99.90
2018-09-29T02:55:24.518Z,99.90
2018-09-29T02:57:52.707Z,99.90
2018-09-29T03:00:20.988Z,99.90
2018-09-29T03:02:49.140Z,99.90
2018-09-29T03:05:17.378Z,99.90
2018-09-29T03:07:45.520Z,99.90
2018-09-29T03:10:13.747Z,99.90
2018-09-29T03:12:41.991Z,99.90
2018-09-29T03:15:10.251Z,99.90
2018-09-29T03:17:38.469Z,99.90
2018-09-29T03:20:06.695Z,99.90
2018-09-29T03:22:34.875Z,99.90
2018-09-29T03:25:03.193Z,99.90
2018-09-29T03:27:31.339Z,99.90
2018-09-29T03:30:00.177Z,99.90
2018-09-29T03:32:28.430Z,99.90
2018-09-29T03:34:56.703Z,99.90
2018-09-29T03:37:25.062Z,99.90
2018-09-29T03:39:53.278Z,99.90
2018-09-29T03:42:21.497Z,99.90
2018-09-29T03:44:49.657Z,99.90
2018-09-29T03:47:17.805Z,99.90
2018-09-29T03:49:47.038Z,99.90
2018-09-29T03:52:15.240Z,99.90
2018-09-29T03:54:43.419Z,99.90
2018-09-29T03:57:11.592Z,99.90
2018-09-29T03:59:39.801Z,99.90
2018-09-29T04:02:08.005Z,99.90
2018-09-29T04:04:36.162Z,99.90
2018-09-29T04:07:04.328Z,99.90
2018-09-29T04:09:32.704Z,99.90
2018-09-29T04:12:00.892Z,99.90
2018-09-29T04:14:29.083Z,99.90
2018-09-29T04:16:57.242Z,99.90
2018-09-29T04:19:25.446Z,99.90
2018-09-29T04:21:53.765Z,99.90
2018-09-29T04:24:22.058Z,99.90
2018-09-29T04:26:50.320Z,99.90
2018-09-29T04:29:18.557Z,99.90
2018-09-29T04:31:46.730Z,99.90
2018-09-29T04:34:15.191Z,99.90
2018-09-29T04:36:43.560Z,99.90
2018-09-29T04:39:13.012Z,99.90
2018-09-29T04:41:41.228Z,99.90
2018-09-29T04:44:10.310Z,99.90
2018-09-29T04:46:39.124Z,99.90
2018-09-29T04:49:07.444Z,99.90
2018-09-29T04:51:35.748Z,99.90
2018-09-29T04:54:03.908Z,99.90
2018-09-29T04:56:32.480Z,99.90
2018-09-29T04:59:00.684Z,99.90
2018-09-29T05:01:28.810Z,99.90
2018-09-29T05:03:56.942Z,99.90
2018-09-29T05:06:25.529Z,99.90
2018-09-29T05:08:53.651Z,99.90
2018-09-29T05:11:21.849Z,99.90
2018-09-29T05:13:50.440Z,99.90
2018-09-29T05:16:18.723Z,99.90
2018-09-29T05:18:47.093Z,99.90
2018-09-29T05:21:15.337Z,99.90
2018-09-29T05:23:43.517Z,99.90
2018-09-29T05:26:11.722Z,99.90
2018-09-29T05:28:40.073Z,99.90
2018-09-29T05:31:08.349Z,99.90
2018-09-29T05:33:37.612Z,99.90
2018-09-29T05:36:05.927Z,99.90
2018-09-29T05:38:34.218Z,99.90
2018-09-29T05:41:02.501Z,99.90
2018-09-29T05:43:30.733Z,99.90
2018-09-29T05:45:58.933Z,99.90
2018-09-29T05:48:27.765Z,99.90
2018-09-29T05:50:55.979Z,99.90
2018-09-29T05:53:24.245Z,99.90
2018-09-29T05:55:52.466Z,99.90
2018-09-29T05:58:20.760Z,99.90
2018-09-29T06:00:48.914Z,99.90
2018-09-29T06:03:17.184Z,99.90
2018-09-29T06:05:45.439Z,99.90
2018-09-29T06:08:13.678Z,99.90
2018-09-29T06:10:41.944Z,99.90
2018-09-29T06:13:10.296Z,99.90
2018-09-29T06:15:38.462Z,99.90
2018-09-29T06:18:06.645Z,99.90
2018-09-29T06:20:34.793Z,99.90
2018-09-29T06:23:02.951Z,99.90
2018-09-29T06:25:31.067Z,99.90
2018-09-29T06:27:59.345Z,99.90
2018-09-29T06:30:27.781Z,99.90
2018-09-29T06:32:56.104Z,99.90
2018-09-29T06:35:24.233Z,99.90
2018-09-29T06:37:52.641Z,99.90
2018-09-29T06:40:20.733Z,99.90
2018-09-29T06:42:48.913Z,99.90
2018-09-29T06:45:17.053Z,99.90
2018-09-29T06:47:45.287Z,99.90
2018-09-29T06:50:13.471Z,99.90
2018-09-29T06:52:41.805Z,99.90
2018-09-29T06:55:10.031Z,99.90
2018-09-29T06:57:38.257Z,99.90
2018-09-29T07:00:06.615Z,99.90
2018-09-29T07:02:34.749Z,99.90
2018-09-29T07:05:02.990Z,99.90
2018-09-29T07:07:31.339Z,99.90
2018-09-29T07:10:00.078Z,99.90
2018-09-29T07:12:28.342Z,99.90
2018-09-29T07:14:56.567Z,99.90
2018-09-29T07:17:24.756Z,99.90
2018-09-29T07:19:52.927Z,99.90
2018-09-29T07:22:21.133Z,99.90
2018-09-29T07:24:49.893Z,99.90
2018-09-29T07:27:18.138Z,99.90
2018-09-29T07:29:46.467Z,99.90
2018-09-29T07:32:14.840Z,99.90
2018-09-29T07:34:43.189Z,99.90
2018-09-29T07:37:11.376Z,99.90
2018-09-29T07:39:39.665Z,99.90
2018-09-29T07:42:08.573Z,99.90
2018-09-29T07:44:36.808Z,99.90
2018-09-29T07:47:04.987Z,99.90
2018-09-29T07:49:33.183Z,99.90
2018-09-29T07:52:01.430Z,99.90
2018-09-29T07:54:29.633Z,99.90
2018-09-29T07:56:57.839Z,99.90
2018-09-29T07:59:26.202Z,99.90
2018-09-29T08:01:54.405Z,99.90
2018-09-29T08:04:22.613Z,99.90
2018-09-29T08:06:50.788Z,99.90
2018-09-29T08:09:18.942Z,99.90
2018-09-29T08:11:47.747Z,99.90
2018-09-29T08:14:16.104Z,99.90
2018-09-29T08:16:44.193Z,99.90
2018-09-29T08:19:12.356Z,99.90
2018-09-29T08:21:40.505Z,99.90
2018-09-29T08:24:08.829Z,99.90
2018-09-29T08:26:37.060Z,99.90
2018-09-29T08:29:05.248Z,99.90
2018-09-29T08:31:33.456Z,99.90
2018-09-29T08:34:01.662Z,99.80
2018-09-29T08:36:29.968Z,99.60
2018-09-29T08:38:58.279Z,99.50
2018-09-29T08:41:26.476Z,99.30
2018-09-29T08:43:54.686Z,99.60
2018-09-29T08:46:23.011Z,99.50
2018-09-29T08:48:51.197Z,99.60
2018-09-29T08:51:19.370Z,99.40
2018-09-29T08:53:47.645Z,99.10
2018-09-29T08:56:15.842Z,98.70
2018-09-29T08:58:44.085Z,98.70
2018-09-29T09:01:12.365Z,98.30
2018-09-29T09:03:40.528Z,98.20
2018-09-29T09:06:08.798Z,97.10
2018-09-29T09:08:37.650Z,95.50
2018-09-29T09:11:06.007Z,91.00
2018-09-29T09:13:34.288Z,77.80
2018-09-29T09:16:03.250Z,60.40
2018-09-29T09:18:31.453Z,53.50
2018-09-29T09:20:59.590Z,49.10
2018-09-29T09:23:27.905Z,43.60
2018-09-29T09:25:56.069Z,40.20
2018-09-29T09:28:24.325Z,37.30
2018-09-29T09:30:52.546Z,35.20
2018-09-29T09:33:20.715Z,34.70
2018-09-29T09:35:48.941Z,33.10
2018-09-29T09:38:17.097Z,31.30
2018-09-29T09:40:47.911Z,29.30
2018-09-29T09:43:16.091Z,29.60
2018-09-29T09:45:44.449Z,29.20
2018-09-29T09:48:12.627Z,29.60
2018-09-29T09:50:40.792Z,29.20
2018-09-29T09:53:09.033Z,29.80
2018-09-29T09:55:37.209Z,31.20
2018-09-29T09:58:05.528Z,30.10
2018-09-29T10:00:39.517Z,29.40
2018-09-29T10:03:13.345Z,29.40
2018-09-29T10:05:41.551Z,29.60
2018-09-29T10:08:09.696Z,30.10
2018-09-29T10:10:37.981Z,32.90
2018-09-29T10:13:06.326Z,33.00
2018-09-29T10:15:34.842Z,34.30
2018-09-29T10:18:03.333Z,37.50
2018-09-29T10:20:31.754Z,38.20
2018-09-29T10:23:00.050Z,36.60
2018-09-29T10:25:28.910Z,35.10
2018-09-29T10:27:57.158Z,33.80
2018-09-29T10:30:25.836Z,32.20
2018-09-29T10:32:54.185Z,29.90
2018-09-29T10:35:22.478Z,28.70
2018-09-29T10:37:50.736Z,29.30
2018-09-29T10:40:18.958Z,31.40
2018-09-29T10:42:47.174Z,34.30
2018-09-29T10:45:15.372Z,36.30
2018-09-29T10:47:43.661Z,38.20
2018-09-29T10:50:11.950Z,40.20
2018-09-29T10:52:41.082Z,44.40
2018-09-29T10:55:09.284Z,47.00
2018-09-29T10:57:37.708Z,49.00
2018-09-29T11:00:06.827Z,47.60
2018-09-29T11:02:41.702Z,44.60
2018-09-29T11:05:09.813Z,43.00
2018-09-29T11:07:37.922Z,39.30
2018-09-29T11:10:06.247Z,36.90
2018-09-29T11:12:34.486Z,32.60
2018-09-29T11:15:02.654Z,31.00
2018-09-29T11:17:30.858Z,29.70
2018-09-29T11:19:59.048Z,28.40
2018-09-29T11:22:27.322Z,29.10
2018-09-29T11:24:55.578Z,29.50
2018-09-29T11:27:25.521Z,28.00
2018-09-29T11:29:53.799Z,27.30
2018-09-29T11:32:22.829Z,26.90
2018-09-29T11:34:50.985Z,27.10
2018-09-29T11:37:19.197Z,27.60
2018-09-29T11:39:47.412Z,26.80
2018-09-29T11:42:15.653Z,26.20
2018-09-29T11:44:43.930Z,25.40
2018-09-29T11:47:12.770Z,25.20
2018-09-29T11:49:40.997Z,26.20
2018-09-29T11:52:09.206Z,28.60
2018-09-29T11:54:37.436Z,29.50
2018-09-29T11:57:05.767Z,28.90
2018-09-29T11:59:33.967Z,29.60
2018-09-29T12:02:02.271Z,29.60
2018-09-29T12:04:30.486Z,29.10
2018-09-29T12:06:58.762Z,31.50
2018-09-29T12:09:26.972Z,34.50
2018-09-29T12:11:55.198Z,35.30
2018-09-29T12:14:23.453Z,33.20
2018-09-29T12:16:51.711Z,30.60
2018-09-29T12:19:20.012Z,29.90
2018-09-29T12:21:48.221Z,30.20
2018-09-29T12:24:16.683Z,28.10
2018-09-29T12:26:44.933Z,26.90
2018-09-29T12:29:13.346Z,26.10
2018-09-29T12:31:41.597Z,25.80
2018-09-29T12:34:09.836Z,24.80
2018-09-29T12:36:38.022Z,25.30
2018-09-29T12:39:08.230Z,25.40
2018-09-29T12:41:36.637Z,25.80
2018-09-29T12:44:04.832Z,25.80
2018-09-29T12:46:33.034Z,26.10
2018-09-29T12:49:01.252Z,26.70
2018-09-29T12:51:29.492Z,26.50
2018-09-29T12:53:57.715Z,26.70
2018-09-29T12:56:26.508Z,26.30
2018-09-29T12:58:54.859Z,25.40
2018-09-29T13:01:23.000Z,25.70
2018-09-29T13:03:51.207Z,24.90
2018-09-29T13:06:19.450Z,24.10
2018-09-29T13:08:48.393Z,23.70
2018-09-29T13:11:17.214Z,23.80
2018-09-29T13:13:45.478Z,24.50
2018-09-29T13:16:13.626Z,24.20
2018-09-29T13:18:41.850Z,24.70
2018-09-29T13:21:10.026Z,25.30
2018-09-29T13:23:38.202Z,25.40
2018-09-29T13:26:06.515Z,26.40
2018-09-29T13:28:34.695Z,26.00
2018-09-29T13:31:02.921Z,26.20
2018-09-29T13:33:31.190Z,26.50
2018-09-29T13:35:59.426Z,26.10
2018-09-29T13:38:27.571Z,26.40
2018-09-29T13:40:55.874Z,26.20
2018-09-29T13:43:24.297Z,25.70
2018-09-29T13:45:52.578Z,25.40
2018-09-29T13:48:20.720Z,25.40
2018-09-29T13:50:48.960Z,25.40
2018-09-29T13:53:17.182Z,25.90
2018-09-29T13:55:45.410Z,26.30
2018-09-29T13:58:14.200Z,26.80
2018-09-29T14:00:42.363Z,27.60
2018-09-29T14:03:10.542Z,28.70
2018-09-29T14:05:39.518Z,29.30
2018-09-29T14:08:07.671Z,29.80
2018-09-29T14:10:35.929Z,29.80
2018-09-29T14:13:04.095Z,29.10
2018-09-29T14:15:32.253Z,28.70
2018-09-29T14:18:00.446Z,28.50
2018-09-29T14:20:28.625Z,28.70
2018-09-29T14:22:56.784Z,29.10
2018-09-29T14:25:24.935Z,28.90
2018-09-29T14:27:53.111Z,29.90
2018-09-29T14:30:21.314Z,30.90
2018-09-29T14:32:49.542Z,32.20
2018-09-29T14:35:18.567Z,33.10
2018-09-29T14:37:46.678Z,32.20
2018-09-29T14:40:14.854Z,32.50
2018-09-29T14:42:43.020Z,31.50
2018-09-29T14:45:11.191Z,31.70
2018-09-29T14:47:39.444Z,32.30
2018-09-29T14:50:07.776Z,32.90
2018-09-29T14:52:36.106Z,33.60
2018-09-29T14:55:04.775Z,34.00
2018-09-29T14:57:33.084Z,34.30
2018-09-29T15:00:01.251Z,35.20
2018-09-29T15:02:29.482Z,37.70
2018-09-29T15:04:58.552Z,40.20
2018-09-29T15:07:26.708Z,42.30
2018-09-29T15:09:55.745Z,43.50
2018-09-29T15:12:23.842Z,44.50
2018-09-29T15:14:52.697Z,45.00
2018-09-29T15:17:21.007Z,46.10
2018-09-29T15:19:49.174Z,47.20
2018-09-29T15:22:17.418Z,48.70
2018-09-29T15:24:45.609Z,49.30
2018-09-29T15:27:13.673Z,49.90
2018-09-29T15:29:41.865Z,50.60
2018-09-29T15:32:11.323Z,50.90
2018-09-29T15:34:39.993Z,51.20
2018-09-29T15:37:08.251Z,52.20
2018-09-29T15:39:36.354Z,53.00
2018-09-29T15:42:04.554Z,53.40
2018-09-29T15:44:32.719Z,54.80
2018-09-29T15:47:00.917Z,54.60
2018-09-29T15:49:29.095Z,55.30
2018-09-29T15:51:57.337Z,55.50
2018-09-29T15:54:25.622Z,55.80
2018-09-29T15:56:53.829Z,56.50
2018-09-29T15:59:22.069Z,56.60
2018-09-29T16:01:56.775Z,57.20
2018-09-29T16:04:24.969Z,57.50
2018-09-29T16:06:53.258Z,58.40
2018-09-29T16:09:21.437Z,59.10
2018-09-29T16:11:49.704Z,59.70
2018-09-29T16:14:18.029Z,59.90
2018-09-29T16:16:46.634Z,60.00
2018-09-29T16:19:14.909Z,60.40
2018-09-29T16:21:43.116Z,60.70
2018-09-29T16:24:11.989Z,61.30
2018-09-29T16:26:40.156Z,62.10
2018-09-29T16:29:08.425Z,62.40
2018-09-29T16:31:36.714Z,62.90
2018-09-29T16:34:04.896Z,63.50
2018-09-29T16:36:33.192Z,63.70
2018-09-29T16:39:01.405Z,64.60
2018-09-29T16:41:29.708Z,64.60
2018-09-29T16:43:57.951Z,65.20
2018-09-29T16:46:26.158Z,65.50
2018-09-29T16:48:54.406Z,66.00
2018-09-29T16:51:22.605Z,66.70
2018-09-29T16:53:51.568Z,67.00
2018-09-29T16:56:19.696Z,67.60
2018-09-29T16:58:47.881Z,67.90
2018-09-29T17:01:16.071Z,67.60
2018-09-29T17:03:44.324Z,68.80
2018-09-29T17:06:13.254Z,69.20
2018-09-29T17:08:41.453Z,69.80
2018-09-29T17:11:09.657Z,70.30
2018-09-29T17:13:37.815Z,71.20
2018-09-29T17:16:06.581Z,72.50
2018-09-29T17:18:34.977Z,72.30
2018-09-29T17:21:03.142Z,73.30
2018-09-29T17:23:32.233Z,74.30
2018-09-29T17:26:01.188Z,76.10
2018-09-29T17:28:29.720Z,76.60
2018-09-29T17:30:58.079Z,78.00
2018-09-29T17:33:26.309Z,79.70
2018-09-29T17:35:54.653Z,80.60
2018-09-29T17:38:22.845Z,80.90
2018-09-29T17:40:51.197Z,82.00
2018-09-29T17:43:19.378Z,82.70
2018-09-29T17:45:48.335Z,84.10
2018-09-29T17:48:16.528Z,85.20
2018-09-29T17:50:44.768Z,86.40
2018-09-29T17:53:13.546Z,87.50
2018-09-29T17:55:41.741Z,87.70
2018-09-29T17:58:09.965Z,89.60
2018-09-29T18:00:38.078Z,90.10
2018-09-29T18:03:06.417Z,90.50
2018-09-29T18:05:34.633Z,90.90
2018-09-29T18:08:02.787Z,91.20
2018-09-29T18:10:31.158Z,91.70
2018-09-29T18:12:59.411Z,91.90
2018-09-29T18:15:27.674Z,92.20
2018-09-29T18:17:55.996Z,92.40
2018-09-29T18:20:24.279Z,92.80
2018-09-29T18:22:52.440Z,93.00
2018-09-29T18:25:20.771Z,93.40
2018-09-29T18:27:48.982Z,93.70
2018-09-29T18:30:17.946Z,93.90
2018-09-29T18:32:46.080Z,94.00
2018-09-29T18:35:15.113Z,94.10
2018-09-29T18:37:43.245Z,94.40
2018-09-29T18:40:11.687Z,94.40
2018-09-29T18:42:41.386Z,94.60
2018-09-29T18:45:09.576Z,94.80
2018-09-29T18:47:38.166Z,94.90
2018-09-29T18:50:06.493Z,94.90
2018-09-29T18:52:35.038Z,95.20
2018-09-29T18:55:03.386Z,95.40
2018-09-29T18:57:31.655Z,95.50
2018-09-29T19:00:00.081Z,95.50
2018-09-29T19:02:28.816Z,95.60
2018-09-29T19:04:57.025Z,95.60
2018-09-29T19:07:25.534Z,95.80
2018-09-29T19:09:53.908Z,95.90
2018-09-29T19:12:22.073Z,96.00
2018-09-29T19:14:50.399Z,95.60
2018-09-29T19:17:18.661Z,95.60
2018-09-29T19:19:46.849Z,95.00
2018-09-29T19:22:15.220Z,95.00
2018-09-29T19:24:43.671Z,95.20
2018-09-29T19:27:11.970Z,95.10
2018-09-29T19:29:40.235Z,95.40
2018-09-29T19:32:09.158Z,95.40
2018-09-29T19:34:37.316Z,95.40
2018-09-29T19:37:05.599Z,95.30
2018-09-29T19:39:33.897Z,95.30
2018-09-29T19:42:02.064Z,95.50
2018-09-29T19:44:30.616Z,95.70
2018-09-29T19:46:58.863Z,96.10
2018-09-29T19:49:27.041Z,96.40
2018-09-29T19:51:55.500Z,96.50
2018-09-29T19:54:23.811Z,96.70
2018-09-29T19:56:52.004Z,96.70
2018-09-29T19:59:20.527Z,97.00
2018-09-29T20:01:48.857Z,97.20
2018-09-29T20:04:17.159Z,96.90
2018-09-29T20:06:45.732Z,96.90
2018-09-29T20:09:14.042Z,96.90
2018-09-29T20:11:42.247Z,96.90
2018-09-29T20:14:10.409Z,96.80
2018-09-29T20:16:38.612Z,97.00
2018-09-29T20:19:07.520Z,97.10
2018-09-29T20:21:35.695Z,97.10
2018-09-29T20:24:04.542Z,97.10
2018-09-29T20:26:32.805Z,97.40
2018-09-29T20:29:01.031Z,96.60
2018-09-29T20:31:29.257Z,96.80
2018-09-29T20:33:57.446Z,96.40
2018-09-29T20:36:25.894Z,96.70
2018-09-29T20:38:54.100Z,96.60
2018-09-29T20:41:22.276Z,96.60
2018-09-29T20:43:51.272Z,96.60
2018-09-29T20:46:19.422Z,96.70
2018-09-29T20:48:47.681Z,96.90
2018-09-29T20:51:15.853Z,97.00
2018-09-29T20:53:44.016Z,97.00
2018-09-29T20:56:12.719Z,97.50
2018-09-29T20:58:40.904Z,97.20
2018-09-29T21:01:09.232Z,97.10
2018-09-29T21:03:37.592Z,96.90
2018-09-29T21:06:05.787Z,97.00
2018-09-29T21:08:33.956Z,97.10
2018-09-29T21:11:02.184Z,97.10
2018-09-29T21:13:30.477Z,97.10
2018-09-29T21:15:59.795Z,97.10
2018-09-29T21:18:28.469Z,97.00
2018-09-29T21:20:57.326Z,97.30
2018-09-29T21:23:25.513Z,97.40
2018-09-29T21:25:54.625Z,97.30
2018-09-29T21:28:22.864Z,97.30
2018-09-29T21:30:51.125Z,97.40
2018-09-29T21:33:19.987Z,97.50
2018-09-29T21:35:48.201Z,97.70
2018-09-29T21:38:17.084Z,97.70
2018-09-29T21:40:45.648Z,97.70
2018-09-29T21:43:13.904Z,97.90
2018-09-29T21:45:42.080Z,97.80
2018-09-29T21:48:10.848Z,98.00
2018-09-29T21:50:38.986Z,98.10
2018-09-29T21:53:07.945Z,98.20
2018-09-29T21:55:36.111Z,98.30
2018-09-29T21:58:04.934Z,98.20
2018-09-29T22:00:38.961Z,98.50
2018-09-29T22:03:07.478Z,98.50
2018-09-29T22:05:35.652Z,98.70
2018-09-29T22:08:04.465Z,98.60
2018-09-29T22:10:32.699Z,98.50
2018-09-29T22:13:00.885Z,98.60
2018-09-29T22:15:29.315Z,98.70
2018-09-29T22:17:58.164Z,98.80
2018-09-29T22:20:26.441Z,98.90
2018-09-29T22:22:55.095Z,99.00
2018-09-29T22:25:24.008Z,98.90
2018-09-29T22:27:52.411Z,99.60
2018-09-29T22:30:20.570Z,99.00
2018-09-29T22:32:49.296Z,98.80
2018-09-29T22:35:17.656Z,98.70
2018-09-29T22:37:45.823Z,98.80
2018-09-29T22:40:13.976Z,98.90
2018-09-29T22:42:42.246Z,98.90
2018-09-29T22:45:10.580Z,99.00
2018-09-29T22:47:38.820Z,99.10
2018-09-29T22:50:07.073Z,99.00
2018-09-29T22:52:35.349Z,99.10
2018-09-29T22:55:03.586Z,99.10
2018-09-29T22:57:31.861Z,99.30
2018-09-29T23:00:00.639Z,99.20
2018-09-29T23:02:28.808Z,99.30
2018-09-29T23:04:57.016Z,99.30
2018-09-29T23:07:25.260Z,99.30
2018-09-29T23:09:53.355Z,99.30
2018-09-29T23:12:21.432Z,99.20
2018-09-29T23:14:49.641Z,99.30
2018-09-29T23:17:17.915Z,99.40
2018-09-29T23:19:46.088Z,99.40
2018-09-29T23:22:14.235Z,99.30
2018-09-29T23:24:42.325Z,99.30
2018-09-29T23:27:10.441Z,99.30
2018-09-29T23:29:38.596Z,99.40
2018-09-29T23:32:06.848Z,99.50
2018-09-29T23:34:35.089Z,99.50
2018-09-29T23:37:03.253Z,99.60
2018-09-29T23:39:32.073Z,99.60
2018-09-29T23:42:00.259Z,99.60
2018-09-29T23:44:28.403Z,99.40
2018-09-29T23:46:56.719Z,99.40
2018-09-29T23:49:24.826Z,99.70
2018-09-29T23:51:56.141Z,99.60
2018-09-29T23:54:24.491Z,99.70
2018-09-29T23:56:52.613Z,99.40
2018-09-29T23:59:20.735Z,99.90
